createdAt,value
2018-04-10T00:01:07.773Z,0
2018-04-10T00:02:16.664Z,0
2018-04-10T00:03:26.056Z,0
2018-04-10T00:04:35.210Z,0
2018-04-10T00:05:44.161Z,0
2018-04-10T00:06:53.047Z,0
2018-04-10T00:08:02.716Z,0
2018-04-10T00:09:11.360Z,0
2018-04-10T00:10:20.752Z,0
2018-04-10T00:11:29.901Z,0
2018-04-10T00:12:39.063Z,0
2018-04-10T00:13:48.493Z,0
2018-04-10T00:14:57.389Z,0
2018-04-10T00:16:06.314Z,0
2018-04-10T00:17:15.208Z,0
2018-04-10T00:18:24.091Z,0
2018-04-10T00:19:32.726Z,0
2018-04-10T00:20:41.873Z,0
2018-04-10T00:21:51.059Z,0
2018-04-10T00:23:00.489Z,0
2018-04-10T00:24:09.644Z,0
2018-04-10T00:25:19.047Z,0
2018-04-10T00:26:28.695Z,0
2018-04-10T00:27:37.622Z,0
2018-04-10T00:28:47.040Z,0
2018-04-10T00:29:56.186Z,0
2018-04-10T00:31:05.326Z,0
2018-04-10T00:32:14.466Z,0
2018-04-10T00:33:23.375Z,0
2018-04-10T00:34:32.542Z,0
2018-04-10T00:35:41.968Z,0
2018-04-10T00:36:51.643Z,0
2018-04-10T00:38:01.369Z,0
2018-04-10T00:39:10.508Z,0
2018-04-10T00:40:19.676Z,0
2018-04-10T00:41:28.842Z,0
2018-04-10T00:42:38.002Z,0
2018-04-10T00:43:47.153Z,0
2018-04-10T00:44:56.566Z,0
2018-04-10T00:46:05.219Z,0
2018-04-10T00:47:14.113Z,0
2018-04-10T00:48:23.001Z,0
2018-04-10T00:49:31.912Z,0
2018-04-10T00:50:41.076Z,0
2018-04-10T00:51:49.964Z,0
2018-04-10T00:52:58.691Z,0
2018-04-10T00:54:07.875Z,0
2018-04-10T00:55:16.815Z,0
2018-04-10T00:56:25.444Z,0
2018-04-10T00:57:34.093Z,0
2018-04-10T00:58:43.007Z,0
2018-04-10T00:59:52.440Z,0
2018-04-10T01:01:01.410Z,0
2018-04-10T01:02:10.307Z,0
2018-04-10T01:03:19.451Z,0
2018-04-10T01:04:28.616Z,0
2018-04-10T01:05:37.774Z,0
2018-04-10T01:06:46.980Z,0
2018-04-10T01:07:55.890Z,0
2018-04-10T01:09:04.553Z,0
2018-04-10T01:10:13.461Z,0
2018-04-10T01:11:22.618Z,0
2018-04-10T01:12:31.800Z,0
2018-04-10T01:13:41.484Z,0
2018-04-10T01:14:50.652Z,0
2018-04-10T01:16:00.057Z,0
2018-04-10T01:17:08.934Z,0
2018-04-10T01:18:17.876Z,0
2018-04-10T01:19:27.293Z,0
2018-04-10T01:20:36.221Z,0
2018-04-10T01:21:45.375Z,0
2018-04-10T01:22:54.538Z,0
2018-04-10T01:24:03.441Z,0
2018-04-10T01:25:12.590Z,0
2018-04-10T01:26:22.003Z,0
2018-04-10T01:27:30.919Z,0
2018-04-10T01:28:39.809Z,0
2018-04-10T01:29:49.018Z,0
2018-04-10T01:30:57.914Z,0
2018-04-10T01:32:07.358Z,0
2018-04-10T01:33:16.253Z,0
2018-04-10T01:34:25.155Z,0
2018-04-10T01:35:34.557Z,0
2018-04-10T01:36:43.446Z,0
2018-04-10T01:37:52.354Z,0
2018-04-10T01:39:01.249Z,0
2018-04-10T01:40:10.403Z,0
2018-04-10T01:41:19.320Z,0
2018-04-10T01:42:28.225Z,0
2018-04-10T01:43:36.870Z,0
2018-04-10T01:44:45.764Z,0
2018-04-10T01:45:55.167Z,0
2018-04-10T01:47:03.824Z,0
2018-04-10T01:48:13.258Z,0
2018-04-10T01:49:22.405Z,0
2018-04-10T01:50:31.547Z,0
2018-04-10T01:51:40.194Z,0
2018-04-10T01:52:49.364Z,0
2018-04-10T01:53:58.027Z,0
2018-04-10T01:55:06.684Z,0
2018-04-10T01:56:15.312Z,0
2018-04-10T01:57:24.715Z,0
2018-04-10T01:58:33.605Z,0
2018-04-10T01:59:42.510Z,0
2018-04-10T02:00:51.668Z,0
2018-04-10T02:02:00.552Z,0
2018-04-10T02:03:09.456Z,0
2018-04-10T02:04:18.592Z,0
2018-04-10T02:05:27.493Z,0
2018-04-10T02:06:36.643Z,0
2018-04-10T02:07:45.806Z,0
2018-04-10T02:08:55.223Z,0
2018-04-10T02:10:04.395Z,0
2018-04-10T02:11:13.319Z,0
2018-04-10T02:12:22.455Z,0
2018-04-10T02:13:31.386Z,0
2018-04-10T02:14:40.561Z,0
2018-04-10T02:15:49.501Z,0
2018-04-10T02:16:58.654Z,0
2018-04-10T02:18:07.835Z,0
2018-04-10T02:19:16.483Z,0
2018-04-10T02:20:25.628Z,0
2018-04-10T02:21:34.778Z,0
2018-04-10T02:22:44.188Z,0
2018-04-10T02:23:53.349Z,0
2018-04-10T02:25:02.245Z,0
2018-04-10T02:26:11.204Z,0
2018-04-10T02:27:20.094Z,0
2018-04-10T02:28:29.251Z,0
2018-04-10T02:29:38.926Z,0
2018-04-10T02:30:47.838Z,0
2018-04-10T02:31:57.291Z,0
2018-04-10T02:33:06.182Z,0
2018-04-10T02:34:15.596Z,0
2018-04-10T02:35:25.028Z,0
2018-04-10T02:36:34.688Z,0
2018-04-10T02:37:44.612Z,0
2018-04-10T02:38:54.028Z,0
2018-04-10T02:40:03.438Z,0
2018-04-10T02:41:12.611Z,0
2018-04-10T02:42:22.043Z,0
2018-04-10T02:43:31.194Z,0
2018-04-10T02:44:40.610Z,0
2018-04-10T02:45:50.035Z,0
2018-04-10T02:46:58.942Z,0
2018-04-10T02:48:07.859Z,0
2018-04-10T02:49:17.037Z,0
2018-04-10T02:50:26.700Z,0
2018-04-10T02:51:36.117Z,0
2018-04-10T02:52:45.523Z,0
2018-04-10T02:53:54.419Z,0
2018-04-10T02:55:03.822Z,0
2018-04-10T02:56:12.712Z,0
2018-04-10T02:57:21.614Z,0
2018-04-10T02:58:30.249Z,0
2018-04-10T02:59:39.135Z,0
2018-04-10T03:00:48.317Z,0
2018-04-10T03:01:57.460Z,0
2018-04-10T03:03:06.869Z,0
2018-04-10T03:04:16.026Z,0
2018-04-10T03:05:24.927Z,0
2018-04-10T03:06:34.080Z,0
2018-04-10T03:07:43.254Z,0
2018-04-10T03:08:52.387Z,0
2018-04-10T03:10:01.528Z,0
2018-04-10T03:11:10.935Z,0
2018-04-10T03:12:19.837Z,0
2018-04-10T03:13:28.736Z,0
2018-04-10T03:14:37.896Z,0
2018-04-10T03:15:47.317Z,0
2018-04-10T03:16:56.236Z,0
2018-04-10T03:18:05.154Z,0
2018-04-10T03:19:14.315Z,0
2018-04-10T03:20:23.477Z,0
2018-04-10T03:21:32.370Z,0
2018-04-10T03:22:41.774Z,0
2018-04-10T03:23:51.434Z,0
2018-04-10T03:25:01.115Z,0
2018-04-10T03:26:10.523Z,0
2018-04-10T03:27:19.672Z,0
2018-04-10T03:28:28.563Z,0
2018-04-10T03:29:37.700Z,0
2018-04-10T03:30:46.608Z,0
2018-04-10T03:31:55.761Z,0
2018-04-10T03:33:04.654Z,0
2018-04-10T03:34:14.064Z,0
2018-04-10T03:35:23.474Z,0
2018-04-10T03:36:32.883Z,0
2018-04-10T03:37:41.770Z,0
2018-04-10T03:38:50.668Z,0
2018-04-10T03:40:00.368Z,0
2018-04-10T03:41:09.524Z,0
2018-04-10T03:42:18.923Z,0
2018-04-10T03:43:28.084Z,0
2018-04-10T03:44:37.508Z,0
2018-04-10T03:45:46.907Z,0
2018-04-10T03:46:56.067Z,0
2018-04-10T03:48:04.968Z,0
2018-04-10T03:49:14.114Z,0
2018-04-10T03:50:23.256Z,0
2018-04-10T03:51:32.420Z,0
2018-04-10T03:52:41.329Z,0
2018-04-10T03:53:49.982Z,0
2018-04-10T03:54:59.379Z,0
2018-04-10T03:56:08.791Z,0
2018-04-10T03:57:17.698Z,0
2018-04-10T03:58:26.876Z,0
2018-04-10T03:59:36.037Z,0
2018-04-10T04:00:45.180Z,0
2018-04-10T04:01:54.078Z,0
2018-04-10T04:03:03.484Z,0
2018-04-10T04:04:12.645Z,0
2018-04-10T04:05:21.532Z,0
2018-04-10T04:06:30.205Z,0
2018-04-10T04:07:39.363Z,0
2018-04-10T04:08:48.784Z,0
2018-04-10T04:09:57.941Z,0
2018-04-10T04:11:07.351Z,0
2018-04-10T04:12:17.008Z,0
2018-04-10T04:13:25.919Z,0
2018-04-10T04:14:35.317Z,0
2018-04-10T04:15:44.471Z,0
2018-04-10T04:16:53.906Z,0
2018-04-10T04:18:03.302Z,0
2018-04-10T04:19:12.861Z,0
2018-04-10T04:20:21.752Z,0
2018-04-10T04:21:31.462Z,0
2018-04-10T04:22:40.412Z,0
2018-04-10T04:23:49.840Z,0
2018-04-10T04:24:58.983Z,0
2018-04-10T04:26:08.813Z,0
2018-04-10T04:27:17.715Z,0
2018-04-10T04:28:26.613Z,0
2018-04-10T04:29:35.238Z,0
2018-04-10T04:30:44.399Z,0
2018-04-10T04:31:53.559Z,0
2018-04-10T04:33:02.722Z,0
2018-04-10T04:34:11.351Z,0
2018-04-10T04:35:19.978Z,0
2018-04-10T04:36:29.112Z,0
2018-04-10T04:37:38.014Z,0
2018-04-10T04:38:47.157Z,0
2018-04-10T04:39:56.313Z,0
2018-04-10T04:41:05.460Z,0
2018-04-10T04:42:15.397Z,0
2018-04-10T04:43:25.049Z,0
2018-04-10T04:44:33.944Z,0
2018-04-10T04:45:42.600Z,0
2018-04-10T04:46:51.316Z,0
2018-04-10T04:48:00.275Z,0
2018-04-10T04:49:09.664Z,0
2018-04-10T04:50:18.818Z,0
2018-04-10T04:51:27.956Z,0
2018-04-10T04:52:37.653Z,0
2018-04-10T04:53:47.328Z,0
2018-04-10T04:54:56.731Z,0
2018-04-10T04:56:05.627Z,0
2018-04-10T04:57:14.819Z,0
2018-04-10T04:58:23.975Z,0
2018-04-10T04:59:33.115Z,0
2018-04-10T05:00:42.395Z,0
2018-04-10T05:01:51.566Z,0
2018-04-10T05:03:01.015Z,0
2018-04-10T05:04:10.170Z,0
2018-04-10T05:05:19.567Z,0
2018-04-10T05:06:29.286Z,0
2018-04-10T05:07:38.185Z,0
2018-04-10T05:08:47.595Z,0
2018-04-10T05:09:56.733Z,0
2018-04-10T05:11:05.879Z,0
2018-04-10T05:12:15.032Z,0
2018-04-10T05:13:24.188Z,0
2018-04-10T05:14:33.094Z,0
2018-04-10T05:15:42.232Z,0
2018-04-10T05:16:51.645Z,4
2018-04-10T05:18:01.067Z,0
2018-04-10T05:19:10.472Z,0
2018-04-10T05:20:19.361Z,0
2018-04-10T05:21:28.754Z,0
2018-04-10T05:22:38.176Z,0
2018-04-10T05:23:47.322Z,4
2018-04-10T05:24:56.507Z,4
2018-04-10T05:26:05.414Z,4
2018-04-10T05:27:14.844Z,4
2018-04-10T05:28:24.017Z,4
2018-04-10T05:29:33.415Z,4
2018-04-10T05:30:42.813Z,4
2018-04-10T05:31:51.976Z,4
2018-04-10T05:33:01.385Z,4
2018-04-10T05:34:10.829Z,4
2018-04-10T05:35:20.261Z,4
2018-04-10T05:36:29.393Z,4
2018-04-10T05:37:38.335Z,4
2018-04-10T05:38:47.483Z,4
2018-04-10T05:39:56.894Z,4
2018-04-10T05:41:05.792Z,4
2018-04-10T05:42:14.936Z,4
2018-04-10T05:43:24.125Z,4
2018-04-10T05:44:33.974Z,4
2018-04-10T05:45:43.164Z,4
2018-04-10T05:46:52.587Z,4
2018-04-10T05:48:01.732Z,4
2018-04-10T05:49:10.915Z,4
2018-04-10T05:50:19.572Z,4
2018-04-10T05:51:28.742Z,4
2018-04-10T05:52:38.168Z,4
2018-04-10T05:53:47.657Z,4
2018-04-10T05:54:57.330Z,4
2018-04-10T05:56:06.770Z,0
2018-04-10T05:57:16.460Z,4
2018-04-10T05:58:25.125Z,0
2018-04-10T05:59:34.853Z,0
2018-04-10T06:00:44.001Z,4
2018-04-10T06:01:53.171Z,4
2018-04-10T06:03:02.351Z,4
2018-04-10T06:04:11.552Z,4
2018-04-10T06:05:20.956Z,4
2018-04-10T06:06:30.117Z,4
2018-04-10T06:07:39.530Z,4
2018-04-10T06:08:48.927Z,4
2018-04-10T06:09:58.199Z,4
2018-04-10T06:11:07.341Z,4
2018-04-10T06:12:16.259Z,4
2018-04-10T06:13:25.153Z,4
2018-04-10T06:14:33.797Z,4
2018-04-10T06:15:42.685Z,4
2018-04-10T06:16:51.888Z,4
2018-04-10T06:18:01.076Z,4
2018-04-10T06:19:09.973Z,4
2018-04-10T06:20:19.160Z,4
2018-04-10T06:21:28.379Z,4
2018-04-10T06:22:37.579Z,4
2018-04-10T06:23:46.989Z,4
2018-04-10T06:24:56.466Z,4
2018-04-10T06:26:05.379Z,4
2018-04-10T06:27:14.049Z,4
2018-04-10T06:28:23.460Z,8
2018-04-10T06:29:33.145Z,8
2018-04-10T06:30:42.549Z,8
2018-04-10T06:31:51.222Z,8
2018-04-10T06:33:00.636Z,4
2018-04-10T06:34:09.822Z,4
2018-04-10T06:35:18.727Z,4
2018-04-10T06:36:27.876Z,4
2018-04-10T06:37:37.038Z,4
2018-04-10T06:38:46.201Z,4
2018-04-10T06:39:55.620Z,4
2018-04-10T06:41:04.517Z,4
2018-04-10T06:42:13.711Z,4
2018-04-10T06:43:22.861Z,8
2018-04-10T06:44:32.297Z,8
2018-04-10T06:45:41.714Z,8
2018-04-10T06:46:50.627Z,8
2018-04-10T06:48:00.346Z,8
2018-04-10T06:49:09.520Z,8
2018-04-10T06:50:18.427Z,8
2018-04-10T06:51:27.624Z,8
2018-04-10T06:52:37.310Z,8
2018-04-10T06:53:45.948Z,8
2018-04-10T06:54:54.845Z,8
2018-04-10T06:56:04.517Z,12
2018-04-10T06:57:13.963Z,12
2018-04-10T06:58:23.118Z,12
2018-04-10T06:59:32.537Z,8
2018-04-10T07:00:41.690Z,12
2018-04-10T07:01:51.104Z,8
2018-04-10T07:03:00.004Z,12
2018-04-10T07:04:09.160Z,12
2018-04-10T07:05:17.792Z,16
2018-04-10T07:06:26.693Z,20
2018-04-10T07:07:36.113Z,16
2018-04-10T07:08:45.531Z,20
2018-04-10T07:09:54.426Z,16
2018-04-10T07:11:03.613Z,20
2018-04-10T07:12:12.518Z,20
2018-04-10T07:13:22.571Z,20
2018-04-10T07:14:32.044Z,24
2018-04-10T07:15:41.712Z,24
2018-04-10T07:16:51.144Z,28
2018-04-10T07:18:00.295Z,28
2018-04-10T07:19:08.944Z,28
2018-04-10T07:20:18.361Z,36
2018-04-10T07:21:27.257Z,40
2018-04-10T07:22:36.173Z,40
2018-04-10T07:23:45.109Z,40
2018-04-10T07:24:54.279Z,40
2018-04-10T07:26:03.683Z,36
2018-04-10T07:27:13.106Z,32
2018-04-10T07:28:22.806Z,32
2018-04-10T07:29:31.963Z,36
2018-04-10T07:30:41.378Z,36
2018-04-10T07:31:50.793Z,36
2018-04-10T07:32:59.699Z,36
2018-04-10T07:34:09.235Z,32
2018-04-10T07:35:18.418Z,32
2018-04-10T07:36:27.572Z,32
2018-04-10T07:37:37.003Z,32
2018-04-10T07:38:46.677Z,36
2018-04-10T07:39:56.723Z,32
2018-04-10T07:41:05.882Z,28
2018-04-10T07:42:15.310Z,32
2018-04-10T07:43:24.225Z,32
2018-04-10T07:44:33.124Z,32
2018-04-10T07:45:42.544Z,36
2018-04-10T07:46:51.984Z,32
2018-04-10T07:48:00.914Z,36
2018-04-10T07:49:09.828Z,32
2018-04-10T07:50:18.459Z,32
2018-04-10T07:51:27.656Z,28
2018-04-10T07:52:37.063Z,28
2018-04-10T07:53:46.239Z,28
2018-04-10T07:54:55.418Z,28
2018-04-10T07:56:04.572Z,24
2018-04-10T07:57:13.999Z,24
2018-04-10T07:58:22.896Z,24
2018-04-10T07:59:32.052Z,24
2018-04-10T08:00:41.508Z,24
2018-04-10T08:01:51.027Z,24
2018-04-10T08:02:59.706Z,24
2018-04-10T08:04:08.580Z,24
2018-04-10T08:05:17.756Z,24
2018-04-10T08:06:26.941Z,24
2018-04-10T08:07:36.349Z,24
2018-04-10T08:08:45.771Z,24
2018-04-10T08:09:55.455Z,24
2018-04-10T08:11:04.366Z,24
2018-04-10T08:12:13.790Z,24
2018-04-10T08:13:22.969Z,24
2018-04-10T08:14:32.135Z,24
2018-04-10T08:15:41.284Z,24
2018-04-10T08:16:50.953Z,28
2018-04-10T08:18:00.398Z,28
2018-04-10T08:19:09.299Z,28
2018-04-10T08:20:18.755Z,28
2018-04-10T08:21:27.928Z,28
2018-04-10T08:22:36.840Z,24
2018-04-10T08:23:46.087Z,28
2018-04-10T08:24:54.993Z,28
2018-04-10T08:26:03.916Z,24
2018-04-10T08:27:13.770Z,24
2018-04-10T08:28:23.464Z,24
2018-04-10T08:29:32.646Z,28
2018-04-10T08:30:41.544Z,28
2018-04-10T08:31:50.959Z,24
2018-04-10T08:32:59.881Z,28
2018-04-10T08:34:08.779Z,28
2018-04-10T08:35:17.951Z,28
2018-04-10T08:36:27.350Z,28
2018-04-10T08:37:36.756Z,28
2018-04-10T08:38:45.914Z,28
2018-04-10T08:39:54.553Z,28
2018-04-10T08:41:03.711Z,28
2018-04-10T08:42:12.874Z,28
2018-04-10T08:43:22.299Z,28
2018-04-10T08:44:31.459Z,24
2018-04-10T08:45:40.399Z,24
2018-04-10T08:46:49.300Z,24
2018-04-10T08:47:58.468Z,24
2018-04-10T08:49:07.375Z,28
2018-04-10T08:50:16.037Z,28
2018-04-10T08:51:25.743Z,24
2018-04-10T08:52:34.923Z,24
2018-04-10T08:53:44.352Z,20
2018-04-10T08:54:53.299Z,20
2018-04-10T08:56:02.461Z,20
2018-04-10T08:57:11.932Z,20
2018-04-10T08:58:20.803Z,16
2018-04-10T08:59:30.244Z,16
2018-04-10T09:00:39.159Z,16
2018-04-10T09:01:48.610Z,20
2018-04-10T09:02:57.783Z,24
2018-04-10T09:04:07.207Z,28
2018-04-10T09:05:16.671Z,32
2018-04-10T09:06:25.623Z,28
2018-04-10T09:07:34.525Z,36
2018-04-10T09:08:43.970Z,28
2018-04-10T09:09:53.195Z,28
2018-04-10T09:11:02.109Z,28
2018-04-10T09:12:11.547Z,32
2018-04-10T09:13:20.707Z,36
2018-04-10T09:14:30.379Z,44
2018-04-10T09:15:39.785Z,48
2018-04-10T09:16:49.199Z,48
2018-04-10T09:17:59.164Z,36
2018-04-10T09:19:08.072Z,28
2018-04-10T09:20:17.220Z,28
2018-04-10T09:21:27.150Z,28
2018-04-10T09:22:36.298Z,24
2018-04-10T09:23:45.980Z,28
2018-04-10T09:24:55.145Z,24
2018-04-10T09:26:04.847Z,24
2018-04-10T09:27:14.011Z,28
2018-04-10T09:28:23.163Z,24
2018-04-10T09:29:32.829Z,24
2018-04-10T09:30:41.989Z,24
2018-04-10T09:31:51.165Z,24
2018-04-10T09:33:00.084Z,24
2018-04-10T09:34:08.997Z,24
2018-04-10T09:35:18.160Z,28
2018-04-10T09:36:27.326Z,28
2018-04-10T09:37:36.260Z,28
2018-04-10T09:38:45.671Z,24
2018-04-10T09:39:54.826Z,24
2018-04-10T09:41:04.516Z,28
2018-04-10T09:42:14.196Z,28
2018-04-10T09:43:23.600Z,32
2018-04-10T09:44:33.031Z,32
2018-04-10T09:45:42.490Z,32
2018-04-10T09:46:51.908Z,32
2018-04-10T09:48:01.319Z,32
2018-04-10T09:49:10.270Z,32
2018-04-10T09:50:20.022Z,32
2018-04-10T09:51:28.924Z,32
2018-04-10T09:52:38.328Z,36
2018-04-10T09:53:47.221Z,40
2018-04-10T09:54:56.633Z,40
2018-04-10T09:56:06.374Z,40
2018-04-10T09:57:15.783Z,40
2018-04-10T09:58:24.675Z,40
2018-04-10T09:59:34.362Z,36
2018-04-10T10:00:43.787Z,36
2018-04-10T10:01:52.951Z,36
2018-04-10T10:03:02.376Z,36
2018-04-10T10:04:11.542Z,40
2018-04-10T10:05:20.701Z,36
2018-04-10T10:06:29.943Z,36
2018-04-10T10:07:39.701Z,36
2018-04-10T10:08:48.411Z,32
2018-04-10T10:09:57.652Z,32
2018-04-10T10:11:06.839Z,28
2018-04-10T10:12:15.761Z,28
2018-04-10T10:13:25.479Z,28
2018-04-10T10:14:34.938Z,28
2018-04-10T10:15:44.364Z,24
2018-04-10T10:16:53.820Z,24
2018-04-10T10:18:02.774Z,20
2018-04-10T10:19:12.263Z,24
2018-04-10T10:20:21.435Z,20
2018-04-10T10:21:30.648Z,20
2018-04-10T10:22:39.631Z,20
2018-04-10T10:23:49.361Z,20
2018-04-10T10:24:58.801Z,20
2018-04-10T10:26:08.340Z,20
2018-04-10T10:27:16.992Z,20
2018-04-10T10:28:26.422Z,20
2018-04-10T10:29:35.924Z,20
2018-04-10T10:30:45.199Z,16
2018-04-10T10:31:54.711Z,20
2018-04-10T10:33:04.306Z,20
2018-04-10T10:34:13.854Z,20
2018-04-10T10:35:22.882Z,20
2018-04-10T10:36:32.069Z,20
2018-04-10T10:37:41.572Z,20
2018-04-10T10:38:50.788Z,20
2018-04-10T10:39:59.963Z,20
2018-04-10T10:41:09.163Z,16
2018-04-10T10:42:17.845Z,16
2018-04-10T10:43:27.030Z,20
2018-04-10T10:44:36.327Z,20
2018-04-10T10:45:45.754Z,20
2018-04-10T10:46:55.476Z,20
2018-04-10T10:48:05.243Z,20
2018-04-10T10:49:14.695Z,20
2018-04-10T10:50:23.847Z,20
2018-04-10T10:51:33.522Z,20
2018-04-10T10:52:42.229Z,16
2018-04-10T10:53:51.753Z,16
2018-04-10T10:55:01.199Z,16
2018-04-10T10:56:10.652Z,20
2018-04-10T10:57:20.066Z,16
2018-04-10T10:58:28.951Z,16
2018-04-10T10:59:38.188Z,16
2018-04-10T11:00:47.699Z,12
2018-04-10T11:01:56.622Z,12
2018-04-10T11:03:05.582Z,12
2018-04-10T11:04:14.546Z,12
2018-04-10T11:05:23.998Z,12
2018-04-10T11:06:33.039Z,12
2018-04-10T11:07:42.561Z,12
2018-04-10T11:08:51.515Z,12
2018-04-10T11:10:00.763Z,12
2018-04-10T11:11:10.313Z,16
2018-04-10T11:12:19.542Z,12
2018-04-10T11:13:28.490Z,12
2018-04-10T11:14:37.981Z,16
2018-04-10T11:15:47.433Z,16
2018-04-10T11:16:56.897Z,16
2018-04-10T11:18:06.608Z,16
2018-04-10T11:19:15.545Z,16
2018-04-10T11:20:24.823Z,16
2018-04-10T11:21:34.582Z,16
2018-04-10T11:22:43.778Z,20
2018-04-10T11:23:53.020Z,16
2018-04-10T11:25:02.548Z,20
2018-04-10T11:26:11.814Z,24
2018-04-10T11:27:21.510Z,20
2018-04-10T11:28:30.478Z,20
2018-04-10T11:29:39.728Z,24
2018-04-10T11:30:48.415Z,24
2018-04-10T11:31:58.082Z,24
2018-04-10T11:33:07.241Z,24
2018-04-10T11:34:16.153Z,24
2018-04-10T11:35:25.341Z,24
2018-04-10T11:36:34.822Z,28
2018-04-10T11:37:43.718Z,24
2018-04-10T11:38:53.160Z,28
2018-04-10T11:40:02.900Z,28
2018-04-10T11:41:11.852Z,28
2018-04-10T11:42:20.771Z,28
2018-04-10T11:43:29.972Z,28
2018-04-10T11:44:39.161Z,28
2018-04-10T11:45:48.412Z,24
2018-04-10T11:46:57.596Z,28
2018-04-10T11:48:07.066Z,28
2018-04-10T11:49:16.339Z,28
2018-04-10T11:50:25.252Z,24
2018-04-10T11:51:33.986Z,28
2018-04-10T11:52:43.442Z,28
2018-04-10T11:53:52.387Z,28
2018-04-10T11:55:01.317Z,28
2018-04-10T11:56:10.569Z,28
2018-04-10T11:57:19.496Z,28
2018-04-10T11:58:28.975Z,28
2018-04-10T11:59:38.146Z,28
2018-04-10T12:00:47.391Z,28
2018-04-10T12:01:56.554Z,32
2018-04-10T12:03:06.103Z,36
2018-04-10T12:04:15.077Z,36
2018-04-10T12:05:24.529Z,36
2018-04-10T12:06:34.024Z,36
2018-04-10T12:07:43.728Z,40
2018-04-10T12:08:52.894Z,36
2018-04-10T12:10:02.329Z,36
2018-04-10T12:11:11.759Z,36
2018-04-10T12:12:20.664Z,44
2018-04-10T12:13:29.818Z,40
2018-04-10T12:14:39.694Z,44
2018-04-10T12:15:48.871Z,44
2018-04-10T12:16:58.011Z,44
2018-04-10T12:18:07.182Z,44
2018-04-10T12:19:16.597Z,40
2018-04-10T12:20:26.321Z,44
2018-04-10T12:21:35.498Z,44
2018-04-10T12:22:44.422Z,44
2018-04-10T12:23:53.364Z,40
2018-04-10T12:25:02.044Z,40
2018-04-10T12:26:11.211Z,36
2018-04-10T12:27:20.136Z,36
2018-04-10T12:28:29.335Z,36
2018-04-10T12:29:38.531Z,40
2018-04-10T12:30:47.876Z,40
2018-04-10T12:31:57.105Z,40
2018-04-10T12:33:06.019Z,44
2018-04-10T12:34:15.471Z,48
2018-04-10T12:35:24.408Z,48
2018-04-10T12:36:33.450Z,48
2018-04-10T12:37:43.453Z,48
2018-04-10T12:38:52.954Z,52
2018-04-10T12:40:02.654Z,48
2018-04-10T12:41:11.834Z,44
2018-04-10T12:42:20.776Z,44
2018-04-10T12:43:29.952Z,48
2018-04-10T12:44:38.946Z,48
2018-04-10T12:45:47.611Z,44
2018-04-10T12:46:56.253Z,40
2018-04-10T12:48:05.661Z,44
2018-04-10T12:49:15.064Z,44
2018-04-10T12:50:23.982Z,44
2018-04-10T12:51:33.443Z,48
2018-04-10T12:52:42.719Z,48
2018-04-10T12:53:51.896Z,44
2018-04-10T12:55:00.881Z,44
2018-04-10T12:56:09.801Z,44
2018-04-10T12:57:18.747Z,44
2018-04-10T12:58:28.221Z,48
2018-04-10T12:59:37.689Z,48
2018-04-10T13:00:47.170Z,48
2018-04-10T13:01:56.614Z,48
2018-04-10T13:03:06.162Z,52
2018-04-10T13:04:15.604Z,48
2018-04-10T13:05:24.836Z,52
2018-04-10T13:06:34.030Z,52
2018-04-10T13:07:43.295Z,52
2018-04-10T13:08:52.770Z,56
2018-04-10T13:10:01.984Z,56
2018-04-10T13:11:11.028Z,56
2018-04-10T13:12:19.713Z,52
2018-04-10T13:13:29.269Z,52
2018-04-10T13:14:38.201Z,56
2018-04-10T13:15:47.648Z,48
2018-04-10T13:16:56.603Z,56
2018-04-10T13:18:05.278Z,60
2018-04-10T13:19:15.108Z,56
2018-04-10T13:20:24.263Z,60
2018-04-10T13:21:33.436Z,60
2018-04-10T13:22:42.620Z,60
2018-04-10T13:23:51.850Z,64
2018-04-10T13:25:01.122Z,64
2018-04-10T13:26:10.637Z,60
2018-04-10T13:27:19.922Z,64
2018-04-10T13:28:29.407Z,68
2018-04-10T13:29:38.657Z,72
2018-04-10T13:30:47.616Z,68
2018-04-10T13:31:56.382Z,72
2018-04-10T13:33:05.079Z,76
2018-04-10T13:34:14.540Z,76
2018-04-10T13:35:23.863Z,72
2018-04-10T13:36:33.332Z,76
2018-04-10T13:37:42.250Z,84
2018-04-10T13:38:51.968Z,84
2018-04-10T13:40:01.157Z,88
2018-04-10T13:41:10.344Z,88
2018-04-10T13:42:19.387Z,88
2018-04-10T13:43:28.660Z,84
2018-04-10T13:44:37.930Z,64
2018-04-10T13:45:47.435Z,56
2018-04-10T13:46:56.632Z,48
2018-04-10T13:48:05.574Z,44
2018-04-10T13:49:15.071Z,56
2018-04-10T13:50:24.022Z,60
2018-04-10T13:51:32.737Z,64
2018-04-10T13:52:41.683Z,44
2018-04-10T13:53:51.167Z,36
2018-04-10T13:55:00.093Z,40
2018-04-10T13:56:09.530Z,32
2018-04-10T13:57:18.743Z,32
2018-04-10T13:58:27.990Z,32
2018-04-10T13:59:37.792Z,28
2018-04-10T14:00:47.344Z,28
2018-04-10T14:01:56.322Z,28
2018-04-10T14:03:05.262Z,28
2018-04-10T14:04:14.461Z,28
2018-04-10T14:05:23.929Z,28
2018-04-10T14:06:33.360Z,28
2018-04-10T14:07:42.571Z,28
2018-04-10T14:08:51.524Z,28
2018-04-10T14:10:00.970Z,24
2018-04-10T14:11:10.442Z,28
2018-04-10T14:12:19.442Z,28
2018-04-10T14:13:28.697Z,24
2018-04-10T14:14:37.597Z,28
2018-04-10T14:15:46.826Z,24
2018-04-10T14:16:56.289Z,24
2018-04-10T14:18:05.524Z,24
2018-04-10T14:19:14.499Z,36
2018-04-10T14:20:23.774Z,24
2018-04-10T14:21:32.992Z,24
2018-04-10T14:22:42.431Z,24
2018-04-10T14:23:51.392Z,20
2018-04-10T14:25:00.817Z,24
2018-04-10T14:26:09.781Z,24
2018-04-10T14:27:19.790Z,24
2018-04-10T14:28:29.029Z,28
2018-04-10T14:29:37.971Z,24
2018-04-10T14:30:47.174Z,24
2018-04-10T14:31:56.148Z,28
2018-04-10T14:33:05.343Z,44
2018-04-10T14:34:14.537Z,32
2018-04-10T14:35:23.475Z,28
2018-04-10T14:36:32.939Z,32
2018-04-10T14:37:42.147Z,32
2018-04-10T14:38:51.119Z,28
2018-04-10T14:40:00.130Z,32
2018-04-10T14:41:09.313Z,24
2018-04-10T14:42:18.561Z,28
2018-04-10T14:43:28.616Z,28
2018-04-10T14:44:37.825Z,28
2018-04-10T14:45:46.513Z,28
2018-04-10T14:46:55.758Z,28
2018-04-10T14:48:05.018Z,24
2018-04-10T14:49:14.015Z,28
2018-04-10T14:50:23.246Z,28
2018-04-10T14:51:33.222Z,28
2018-04-10T14:52:42.667Z,28
2018-04-10T14:53:52.368Z,28
2018-04-10T14:55:01.774Z,28
2018-04-10T14:56:11.184Z,24
2018-04-10T14:57:20.642Z,24
2018-04-10T14:58:30.088Z,20
2018-04-10T14:59:39.255Z,24
2018-04-10T15:00:48.164Z,20
2018-04-10T15:01:57.597Z,20
2018-04-10T15:03:07.071Z,20
2018-04-10T15:04:16.232Z,20
2018-04-10T15:05:25.382Z,16
2018-04-10T15:06:34.541Z,16
2018-04-10T15:07:44.022Z,16
2018-04-10T15:08:53.189Z,16
2018-04-10T15:10:02.104Z,16
2018-04-10T15:11:11.024Z,16
2018-04-10T15:12:20.223Z,16
2018-04-10T15:13:29.633Z,16
2018-04-10T15:14:38.833Z,16
2018-04-10T15:15:47.499Z,16
2018-04-10T15:16:56.194Z,16
2018-04-10T15:18:05.126Z,16
2018-04-10T15:19:14.348Z,16
2018-04-10T15:20:23.286Z,12
2018-04-10T15:21:32.754Z,12
2018-04-10T15:22:41.402Z,16
2018-04-10T15:23:50.606Z,16
2018-04-10T15:25:00.057Z,16
2018-04-10T15:26:09.485Z,16
2018-04-10T15:27:18.543Z,12
2018-04-10T15:28:27.787Z,12
2018-04-10T15:29:36.834Z,12
2018-04-10T15:30:46.363Z,12
2018-04-10T15:31:55.667Z,12
2018-04-10T15:33:05.198Z,12
2018-04-10T15:34:14.729Z,12
2018-04-10T15:35:23.687Z,12
2018-04-10T15:36:33.146Z,12
2018-04-10T15:37:41.926Z,12
2018-04-10T15:38:51.217Z,16
2018-04-10T15:40:00.192Z,16
2018-04-10T15:41:09.399Z,12
2018-04-10T15:42:18.975Z,12
2018-04-10T15:43:28.195Z,12
2018-04-10T15:44:37.830Z,16
2018-04-10T15:45:47.073Z,16
2018-04-10T15:46:56.263Z,16
2018-04-10T15:48:05.576Z,16
2018-04-10T15:49:15.056Z,12
2018-04-10T15:50:24.832Z,16
2018-04-10T15:51:34.170Z,12
2018-04-10T15:52:43.481Z,16
2018-04-10T15:53:52.970Z,16
2018-04-10T15:55:01.674Z,16
2018-04-10T15:56:11.204Z,12
2018-04-10T15:57:20.200Z,16
2018-04-10T15:58:29.934Z,16
2018-04-10T15:59:39.684Z,16
2018-04-10T16:00:49.014Z,12
2018-04-10T16:01:57.727Z,16
2018-04-10T16:03:07.210Z,12
2018-04-10T16:04:16.613Z,12
2018-04-10T16:05:25.625Z,12
2018-04-10T16:06:34.711Z,12
2018-04-10T16:07:43.738Z,12
2018-04-10T16:08:53.237Z,12
2018-04-10T16:10:02.202Z,12
2018-04-10T16:11:11.662Z,12
2018-04-10T16:12:21.123Z,12
2018-04-10T16:13:30.437Z,8
2018-04-10T16:14:39.691Z,12
2018-04-10T16:15:49.228Z,12
2018-04-10T16:16:58.885Z,12
2018-04-10T16:18:07.848Z,8
2018-04-10T16:19:16.556Z,8
2018-04-10T16:20:25.388Z,12
2018-04-10T16:21:35.508Z,12
2018-04-10T16:22:44.911Z,8
2018-04-10T16:23:54.900Z,8
2018-04-10T16:25:04.084Z,8
2018-04-10T16:26:13.632Z,8
2018-04-10T16:27:23.200Z,8
2018-04-10T16:28:32.693Z,8
2018-04-10T16:29:42.069Z,8
2018-04-10T16:30:51.596Z,8
2018-04-10T16:32:00.888Z,8
2018-04-10T16:33:11.168Z,8
2018-04-10T16:34:20.305Z,8
2018-04-10T16:35:30.032Z,8
2018-04-10T16:36:39.491Z,8
2018-04-10T16:37:49.014Z,8
2018-04-10T16:38:58.900Z,8
2018-04-10T16:40:08.574Z,12
2018-04-10T16:41:18.187Z,12
2018-04-10T16:42:27.196Z,8
2018-04-10T16:43:36.479Z,8